createdAt,value
2022-10-08T00:01:25.640Z,9.14
2022-10-08T00:03:54.478Z,9.11
2022-10-08T00:06:29.386Z,9.08
2022-10-08T00:09:05.141Z,9.05
2022-10-08T00:11:37.474Z,9.03
2022-10-08T00:14:06.606Z,9.00
2022-10-08T00:16:38.731Z,9.00
2022-10-08T00:19:14.784Z,8.99
2022-10-08T00:21:45.383Z,8.98
2022-10-08T00:24:18.080Z,8.98
2022-10-08T00:26:47.559Z,8.99
2022-10-08T00:29:19.463Z,8.99
2022-10-08T00:31:50.224Z,8.98
2022-10-08T00:34:22.848Z,8.98
2022-10-08T00:36:53.092Z,8.94
2022-10-08T00:39:23.625Z,8.91
2022-10-08T00:41:54.428Z,8.85
2022-10-08T00:44:52.527Z,8.81
2022-10-08T00:47:28.560Z,8.78
2022-10-08T00:50:01.767Z,8.74
2022-10-08T00:52:34.495Z,8.69
2022-10-08T00:55:06.310Z,8.66
2022-10-08T00:57:35.483Z,8.62
2022-10-08T01:00:12.097Z,8.57
2022-10-08T01:02:40.451Z,8.57
2022-10-08T01:05:09.964Z,8.55
2022-10-08T01:07:59.855Z,8.54
2022-10-08T01:10:44.237Z,8.53
2022-10-08T01:13:25.994Z,8.51
2022-10-08T01:16:14.161Z,8.50
2022-10-08T01:18:59.354Z,8.49
2022-10-08T01:21:47.710Z,8.49
2022-10-08T01:25:09.879Z,8.47
2022-10-08T01:27:45.307Z,8.45
2022-10-08T01:30:17.926Z,8.45
2022-10-08T01:32:57.092Z,8.44
2022-10-08T01:35:32.744Z,8.42
2022-10-08T01:38:06.617Z,8.41
2022-10-08T01:40:38.313Z,8.40
2022-10-08T01:43:10.355Z,8.38
2022-10-08T01:45:56.531Z,8.36
2022-10-08T01:48:28.745Z,8.36
2022-10-08T01:51:03.806Z,8.35
2022-10-08T01:53:36.779Z,8.34
2022-10-08T01:56:08.784Z,8.33
2022-10-08T01:58:50.435Z,8.34
2022-10-08T02:01:41.623Z,8.34
2022-10-08T02:04:27.886Z,8.33
2022-10-08T02:06:57.924Z,8.31
2022-10-08T02:09:28.370Z,8.30
2022-10-08T02:11:57.125Z,8.29
2022-10-08T02:14:27.681Z,8.27
2022-10-08T02:17:06.909Z,8.24
2022-10-08T02:20:00.924Z,8.21
2022-10-08T02:22:36.392Z,8.18
2022-10-08T02:25:14.731Z,8.12
2022-10-08T02:27:56.709Z,8.09
2022-10-08T02:30:25.140Z,8.06
2022-10-08T02:33:00.873Z,8.04
2022-10-08T02:35:33.316Z,8.02
2022-10-08T02:38:11.499Z,8.00
2022-10-08T02:40:42.324Z,7.98
2022-10-08T02:43:15.704Z,7.97
2022-10-08T02:45:48.737Z,7.96
2022-10-08T02:48:32.414Z,7.92
2022-10-08T02:51:07.491Z,7.91
2022-10-08T02:53:38.094Z,7.91
2022-10-08T02:56:46.277Z,7.88
2022-10-08T02:59:17.829Z,7.88
2022-10-08T03:01:55.316Z,7.88
2022-10-08T03:04:34.541Z,7.87
2022-10-08T03:07:02.607Z,7.84
2022-10-08T03:09:39.848Z,7.82
2022-10-08T03:12:07.684Z,7.81
2022-10-08T03:14:42.748Z,7.81
2022-10-08T03:17:14.446Z,7.79
2022-10-08T03:19:42.038Z,7.79
2022-10-08T03:22:10.131Z,7.77
2022-10-08T03:24:37.497Z,7.76
2022-10-08T03:27:05.170Z,7.76
2022-10-08T03:29:32.855Z,7.74
2022-10-08T03:32:00.117Z,7.72
2022-10-08T03:34:27.751Z,7.69
2022-10-08T03:36:55.132Z,7.67
2022-10-08T03:39:22.805Z,7.66
2022-10-08T03:41:50.956Z,7.63
2022-10-08T03:44:18.666Z,7.61
2022-10-08T03:46:46.309Z,7.58
2022-10-08T03:49:13.998Z,7.54
2022-10-08T03:51:41.800Z,7.54
2022-10-08T03:54:09.492Z,7.54
2022-10-08T03:56:36.925Z,7.54
2022-10-08T03:59:04.376Z,7.54
2022-10-08T04:01:31.967Z,7.53
2022-10-08T04:03:59.954Z,7.52
2022-10-08T04:06:27.443Z,7.50
2022-10-08T04:08:56.871Z,7.48
2022-10-08T04:11:25.278Z,7.46
2022-10-08T04:13:52.734Z,7.42
2022-10-08T04:16:20.434Z,7.39
2022-10-08T04:18:48.617Z,7.38
2022-10-08T04:21:18.174Z,7.36
2022-10-08T04:23:49.843Z,7.36
2022-10-08T04:26:18.027Z,7.37
2022-10-08T04:28:47.590Z,7.38
2022-10-08T04:31:18.756Z,7.37
2022-10-08T04:33:47.472Z,7.34
2022-10-08T04:36:24.254Z,7.34
2022-10-08T04:38:52.078Z,7.32
2022-10-08T04:41:25.501Z,7.28
2022-10-08T04:43:56.793Z,7.26
2022-10-08T04:46:24.521Z,7.26
2022-10-08T04:48:54.821Z,7.29
2022-10-08T04:51:26.139Z,7.33
2022-10-08T04:53:55.351Z,7.38
2022-10-08T04:56:27.162Z,7.69
2022-10-08T04:58:56.312Z,7.88
2022-10-08T05:01:26.120Z,7.91
2022-10-08T05:03:55.976Z,7.93
2022-10-08T05:06:28.061Z,7.96
2022-10-08T05:08:59.709Z,8.02
2022-10-08T05:11:28.183Z,8.28
2022-10-08T05:13:58.079Z,8.90
2022-10-08T05:16:26.738Z,9.54
2022-10-08T05:18:56.181Z,9.86
2022-10-08T05:21:28.191Z,10.01
2022-10-08T05:24:07.024Z,10.20
2022-10-08T05:26:58.669Z,10.31
2022-10-08T05:29:10.987Z,10.36
2022-10-08T05:31:39.962Z,10.42
2022-10-08T05:34:07.751Z,10.49
2022-10-08T05:36:40.183Z,10.47
2022-10-08T05:39:07.794Z,10.59
2022-10-08T05:41:36.918Z,11.01
2022-10-08T05:44:06.070Z,11.64
2022-10-08T05:46:36.777Z,12.17
2022-10-08T05:49:08.145Z,12.77
2022-10-08T05:51:37.502Z,13.31
2022-10-08T05:54:05.323Z,13.83
2022-10-08T05:56:33.049Z,14.20
2022-10-08T05:59:01.035Z,14.53
2022-10-08T06:01:34.390Z,14.82
2022-10-08T06:04:09.077Z,14.93
2022-10-08T06:06:39.620Z,14.92
2022-10-08T06:09:12.400Z,14.94
2022-10-08T06:11:42.226Z,15.04
2022-10-08T06:14:16.616Z,15.19
2022-10-08T06:16:44.771Z,15.32
2022-10-08T06:19:14.339Z,15.34
2022-10-08T06:21:42.150Z,15.43
2022-10-08T06:24:11.657Z,15.65
2022-10-08T06:26:42.307Z,15.82
2022-10-08T06:29:18.464Z,15.98
2022-10-08T06:31:47.651Z,16.08
2022-10-08T06:34:15.923Z,16.07
2022-10-08T06:36:43.787Z,16.14
2022-10-08T06:39:13.950Z,16.33
2022-10-08T06:41:44.819Z,16.37
2022-10-08T06:44:15.003Z,16.39
2022-10-08T06:46:43.937Z,16.49
2022-10-08T06:49:12.755Z,16.67
2022-10-08T06:51:40.479Z,16.74
2022-10-08T06:54:08.821Z,16.95
2022-10-08T06:56:38.147Z,17.17
2022-10-08T06:59:07.360Z,17.37
2022-10-08T07:01:35.484Z,17.49
2022-10-08T07:04:06.239Z,17.63
2022-10-08T07:06:34.463Z,17.61
2022-10-08T07:09:04.002Z,17.54
2022-10-08T07:11:33.136Z,17.60
2022-10-08T07:14:00.971Z,17.64
2022-10-08T07:16:28.947Z,17.78
2022-10-08T07:18:57.946Z,17.89
2022-10-08T07:21:26.676Z,18.01
2022-10-08T07:23:54.876Z,18.10
2022-10-08T07:26:26.392Z,18.22
2022-10-08T07:28:59.904Z,18.33
2022-10-08T07:31:34.273Z,18.48
2022-10-08T07:34:06.092Z,18.65
2022-10-08T07:36:34.585Z,18.75
2022-10-08T07:39:15.816Z,18.76
2022-10-08T07:41:43.460Z,18.78
2022-10-08T07:44:12.426Z,19.02
2022-10-08T07:46:47.635Z,19.06
2022-10-08T07:49:17.745Z,19.14
2022-10-08T07:51:45.733Z,19.20
2022-10-08T07:54:18.076Z,19.33
2022-10-08T07:56:46.258Z,19.40
2022-10-08T07:59:15.367Z,19.43
2022-10-08T08:01:43.409Z,19.59
2022-10-08T08:04:12.165Z,19.71
2022-10-08T08:06:49.263Z,19.89
2022-10-08T08:09:18.038Z,20.03
2022-10-08T08:11:48.227Z,20.09
2022-10-08T08:14:16.364Z,20.13
2022-10-08T08:16:44.289Z,20.27
2022-10-08T08:19:12.078Z,20.40
2022-10-08T08:21:39.718Z,20.54
2022-10-08T08:24:13.207Z,20.62
2022-10-08T08:26:42.900Z,20.78
2022-10-08T08:29:14.678Z,20.91
2022-10-08T08:31:46.073Z,21.09
2022-10-08T08:34:20.587Z,21.33
2022-10-08T08:36:50.816Z,21.50
2022-10-08T08:39:27.649Z,21.59
2022-10-08T08:42:31.129Z,21.75
2022-10-08T08:45:03.287Z,21.93
2022-10-08T08:47:41.521Z,21.97
2022-10-08T08:50:35.274Z,21.90
2022-10-08T08:53:05.083Z,21.82
2022-10-08T08:55:43.287Z,21.90
2022-10-08T08:59:01.848Z,22.04
2022-10-08T09:01:46.827Z,22.21
2022-10-08T09:04:19.852Z,22.38
2022-10-08T09:06:50.834Z,22.46
2022-10-08T09:09:33.275Z,22.58
2022-10-08T09:12:21.185Z,22.75
2022-10-08T09:14:56.694Z,22.68
2022-10-08T09:17:35.739Z,22.77
2022-10-08T09:20:04.124Z,22.91
2022-10-08T09:22:39.107Z,22.97
2022-10-08T09:25:17.249Z,23.03
2022-10-08T09:27:57.303Z,23.07
2022-10-08T09:30:30.007Z,23.18
2022-10-08T09:33:02.287Z,23.32
2022-10-08T09:35:33.564Z,23.48
2022-10-08T09:38:05.629Z,23.46
2022-10-08T09:40:31.541Z,23.53
2022-10-08T09:43:16.706Z,23.56
2022-10-08T09:45:49.351Z,23.47
2022-10-08T09:48:25.609Z,23.39
2022-10-08T09:50:58.158Z,23.29
2022-10-08T09:53:48.649Z,23.45
2022-10-08T09:56:27.613Z,23.54
2022-10-08T09:59:01.973Z,23.49
2022-10-08T10:01:33.363Z,23.52
2022-10-08T10:04:02.835Z,23.57
2022-10-08T10:06:37.356Z,23.60
2022-10-08T10:09:28.328Z,23.52
2022-10-08T10:12:36.460Z,23.48
2022-10-08T10:15:23.988Z,23.47
2022-10-08T10:17:59.361Z,23.44
2022-10-08T10:20:50.789Z,23.44
2022-10-08T10:23:29.959Z,23.48
2022-10-08T10:26:14.040Z,23.50
2022-10-08T10:28:50.132Z,23.60
2022-10-08T10:31:28.010Z,23.57
2022-10-08T10:34:15.305Z,23.55
2022-10-08T10:36:53.671Z,23.42
2022-10-08T10:39:42.238Z,23.38
2022-10-08T10:42:50.798Z,23.39
2022-10-08T10:45:23.766Z,23.39
2022-10-08T10:47:54.503Z,23.37
2022-10-08T10:50:39.568Z,23.37
2022-10-08T10:53:28.506Z,23.40
2022-10-08T10:56:18.329Z,23.47
2022-10-08T10:59:22.995Z,23.41
2022-10-08T11:02:24.910Z,23.44
2022-10-08T11:05:19.531Z,23.40
2022-10-08T11:08:10.681Z,23.38
2022-10-08T11:11:18.692Z,23.29
2022-10-08T11:13:57.721Z,23.36
2022-10-08T11:16:42.814Z,23.45
2022-10-08T11:19:35.609Z,23.17
2022-10-08T11:22:26.858Z,22.99
2022-10-08T11:26:02.677Z,22.95
2022-10-08T11:28:24.040Z,22.98
2022-10-08T11:31:12.774Z,23.07
2022-10-08T11:33:41.783Z,23.09
2022-10-08T11:36:38.355Z,23.10
2022-10-08T11:39:23.281Z,23.12
2022-10-08T11:42:05.594Z,23.12
2022-10-08T11:44:33.469Z,23.09
2022-10-08T11:47:43.119Z,23.02
2022-10-08T11:50:30.520Z,23.01
2022-10-08T11:53:20.195Z,23.07
2022-10-08T11:55:55.322Z,23.12
2022-10-08T11:58:30.511Z,23.15
2022-10-08T12:01:10.166Z,23.21
2022-10-08T12:03:41.075Z,23.22
2022-10-08T12:06:28.240Z,23.08
2022-10-08T12:09:01.128Z,23.01
2022-10-08T12:11:37.335Z,22.93
2022-10-08T12:14:19.160Z,22.86
2022-10-08T12:17:07.536Z,22.83
2022-10-08T12:19:45.330Z,22.80
2022-10-08T12:22:27.634Z,22.80
2022-10-08T12:24:59.118Z,22.87
2022-10-08T12:27:34.477Z,22.93
2022-10-08T12:30:06.866Z,22.88
2022-10-08T12:32:45.832Z,22.87
2022-10-08T12:35:37.415Z,22.90
2022-10-08T12:38:20.908Z,22.91
2022-10-08T12:41:12.050Z,22.91
2022-10-08T12:44:10.316Z,22.84
2022-10-08T12:47:04.707Z,22.66
2022-10-08T12:49:56.408Z,22.59
2022-10-08T12:52:24.876Z,22.60
2022-10-08T12:55:01.151Z,22.57
2022-10-08T12:57:36.045Z,22.62
2022-10-08T13:00:10.814Z,22.63
2022-10-08T13:02:41.514Z,22.63
2022-10-08T13:05:30.723Z,22.65
2022-10-08T13:07:58.769Z,22.68
2022-10-08T13:10:29.230Z,22.62
2022-10-08T13:13:05.063Z,22.60
2022-10-08T13:15:35.619Z,22.55
2022-10-08T13:18:21.790Z,22.46
2022-10-08T13:21:04.556Z,22.43
2022-10-08T13:23:42.424Z,22.35
2022-10-08T13:26:44.935Z,22.27
2022-10-08T13:29:29.453Z,22.21
2022-10-08T13:32:15.647Z,22.19
2022-10-08T13:34:57.491Z,22.19
2022-10-08T13:37:32.500Z,22.15
2022-10-08T13:40:14.661Z,22.08
2022-10-08T13:42:49.205Z,21.88
2022-10-08T13:45:21.354Z,21.65
2022-10-08T13:47:51.188Z,21.59
2022-10-08T13:50:20.435Z,21.51
2022-10-08T13:52:54.254Z,21.43
2022-10-08T13:55:30.231Z,21.29
2022-10-08T13:58:01.524Z,21.23
2022-10-08T14:00:32.037Z,21.15
2022-10-08T14:03:00.540Z,21.09
2022-10-08T14:05:30.993Z,21.05
2022-10-08T14:08:04.398Z,21.05
2022-10-08T14:10:32.834Z,21.01
2022-10-08T14:13:00.293Z,20.94
2022-10-08T14:15:28.167Z,20.88
2022-10-08T14:17:55.728Z,20.80
2022-10-08T14:20:23.522Z,20.76
2022-10-08T14:22:51.504Z,20.73
2022-10-08T14:25:23.462Z,20.73
2022-10-08T14:27:51.721Z,20.69
2022-10-08T14:30:19.971Z,20.65
2022-10-08T14:32:47.570Z,20.58
2022-10-08T14:35:16.572Z,20.52
2022-10-08T14:37:44.160Z,20.43
2022-10-08T14:40:19.180Z,20.38
2022-10-08T14:42:47.336Z,20.33
2022-10-08T14:45:15.211Z,20.26
2022-10-08T14:47:42.881Z,20.21
2022-10-08T14:50:10.565Z,20.17
2022-10-08T14:52:44.690Z,20.11
2022-10-08T14:55:08.501Z,20.07
2022-10-08T14:57:35.924Z,19.99
2022-10-08T15:00:05.415Z,19.93
2022-10-08T15:02:36.096Z,19.89
2022-10-08T15:05:04.474Z,19.84
2022-10-08T15:07:32.367Z,19.75
2022-10-08T15:10:00.034Z,19.71
2022-10-08T15:12:27.684Z,19.65
2022-10-08T15:14:55.458Z,19.57
2022-10-08T15:17:24.933Z,19.48
2022-10-08T15:19:57.421Z,19.41
2022-10-08T15:22:29.865Z,19.31
2022-10-08T15:24:58.151Z,19.24
2022-10-08T15:27:25.830Z,19.16
2022-10-08T15:29:53.302Z,19.07
2022-10-08T15:32:24.477Z,18.99
2022-10-08T15:34:52.962Z,18.88
2022-10-08T15:37:21.155Z,18.74
2022-10-08T15:39:48.683Z,18.58
2022-10-08T15:42:17.126Z,18.41
2022-10-08T15:44:46.123Z,18.23
2022-10-08T15:47:15.735Z,18.06
2022-10-08T15:49:45.389Z,17.91
2022-10-08T15:52:16.833Z,17.76
2022-10-08T15:54:46.112Z,17.61
2022-10-08T15:57:17.138Z,17.45
2022-10-08T15:59:45.483Z,17.28
2022-10-08T16:02:17.212Z,17.11
2022-10-08T16:04:47.162Z,16.98
2022-10-08T16:07:16.374Z,16.85
2022-10-08T16:09:44.189Z,16.73
2022-10-08T16:12:12.267Z,16.61
2022-10-08T16:14:39.742Z,16.48
2022-10-08T16:17:10.391Z,16.37
2022-10-08T16:19:38.270Z,16.24
2022-10-08T16:22:07.167Z,16.11
2022-10-08T16:24:34.683Z,15.97
2022-10-08T16:27:02.629Z,15.83
2022-10-08T16:29:30.446Z,15.70
2022-10-08T16:31:58.460Z,15.55
2022-10-08T16:34:27.933Z,15.41
2022-10-08T16:36:57.636Z,15.32
2022-10-08T16:39:25.474Z,15.23
2022-10-08T16:41:53.162Z,15.17
2022-10-08T16:44:21.959Z,15.12
2022-10-08T16:46:52.633Z,15.06
2022-10-08T16:49:25.808Z,14.96
2022-10-08T16:52:01.861Z,14.88
2022-10-08T16:54:29.488Z,14.79
2022-10-08T16:56:57.574Z,14.70
2022-10-08T16:59:27.515Z,14.61
2022-10-08T17:01:58.094Z,14.53
2022-10-08T17:04:28.336Z,14.46
2022-10-08T17:06:56.659Z,14.40
2022-10-08T17:09:24.330Z,14.33
2022-10-08T17:11:52.037Z,14.26
2022-10-08T17:14:19.647Z,14.18
2022-10-08T17:16:49.162Z,14.06
2022-10-08T17:19:17.252Z,13.98
2022-10-08T17:21:45.030Z,13.93
2022-10-08T17:24:12.978Z,13.85
2022-10-08T17:26:41.543Z,13.81
2022-10-08T17:29:11.241Z,13.78
2022-10-08T17:31:39.979Z,13.74
2022-10-08T17:34:08.075Z,13.71
2022-10-08T17:36:39.276Z,13.67
2022-10-08T17:39:11.270Z,13.64
2022-10-08T17:41:40.878Z,13.59
2022-10-08T17:44:10.511Z,13.55
2022-10-08T17:46:45.410Z,13.50
2022-10-08T17:49:14.669Z,13.46
2022-10-08T17:51:42.903Z,13.42
2022-10-08T17:54:14.893Z,13.35
2022-10-08T17:56:42.811Z,13.32
2022-10-08T17:59:14.369Z,13.28
2022-10-08T18:01:45.036Z,13.26
2022-10-08T18:04:15.062Z,13.22
2022-10-08T18:06:45.875Z,13.19
2022-10-08T18:09:18.031Z,13.15
2022-10-08T18:11:50.766Z,13.10
2022-10-08T18:14:19.826Z,13.04
2022-10-08T18:16:48.691Z,12.98
2022-10-08T18:19:17.427Z,12.89
2022-10-08T18:21:45.604Z,12.85
2022-10-08T18:24:13.823Z,12.80
2022-10-08T18:26:42.030Z,12.77
2022-10-08T18:29:13.102Z,12.75
2022-10-08T18:31:43.270Z,12.73
2022-10-08T18:34:16.934Z,12.71
2022-10-08T18:36:46.532Z,12.63
2022-10-08T18:39:18.441Z,12.65
2022-10-08T18:41:50.358Z,12.64
2022-10-08T18:44:21.979Z,12.63
2022-10-08T18:46:50.821Z,12.63
2022-10-08T18:49:23.393Z,12.61
2022-10-08T18:51:51.290Z,12.60
2022-10-08T18:54:19.188Z,12.57
2022-10-08T18:56:47.110Z,12.57
2022-10-08T18:59:17.048Z,12.54
2022-10-08T19:01:47.410Z,12.50
2022-10-08T19:04:19.561Z,12.47
2022-10-08T19:06:52.488Z,12.47
2022-10-08T19:09:21.119Z,12.47
2022-10-08T19:11:52.437Z,12.47
2022-10-08T19:14:22.507Z,12.47
2022-10-08T19:16:51.680Z,12.46
2022-10-08T19:19:24.770Z,12.44
2022-10-08T19:21:53.862Z,12.45
2022-10-08T19:24:24.655Z,12.44
2022-10-08T19:26:53.872Z,12.44
2022-10-08T19:29:27.432Z,12.44
2022-10-08T19:31:55.805Z,12.41
2022-10-08T19:34:26.594Z,12.39
2022-10-08T19:36:54.623Z,12.37
2022-10-08T19:39:26.998Z,12.34
2022-10-08T19:41:54.705Z,12.31
2022-10-08T19:44:22.338Z,12.28
2022-10-08T19:46:50.317Z,12.25
2022-10-08T19:49:18.815Z,12.22
2022-10-08T19:51:46.785Z,12.21
2022-10-08T19:54:14.940Z,12.20
2022-10-08T19:56:42.519Z,12.18
2022-10-08T19:59:11.341Z,12.16
2022-10-08T20:01:40.735Z,12.13
2022-10-08T20:04:09.838Z,12.10
2022-10-08T20:06:40.545Z,12.08
2022-10-08T20:09:12.470Z,12.05
2022-10-08T20:11:43.608Z,12.02
2022-10-08T20:14:13.514Z,11.98
2022-10-08T20:16:43.028Z,11.93
2022-10-08T20:19:18.834Z,11.89
2022-10-08T20:21:47.509Z,11.86
2022-10-08T20:24:17.269Z,11.84
2022-10-08T20:26:45.071Z,11.81
2022-10-08T20:29:21.616Z,11.78
2022-10-08T20:31:54.479Z,11.77
2022-10-08T20:34:30.034Z,11.74
2022-10-08T20:37:00.374Z,11.70
2022-10-08T20:39:28.407Z,11.69
2022-10-08T20:41:57.761Z,11.65
2022-10-08T20:44:25.402Z,11.64
2022-10-08T20:46:53.100Z,11.60
2022-10-08T20:49:20.793Z,11.58
2022-10-08T20:51:48.707Z,11.57
2022-10-08T20:54:17.254Z,11.53
2022-10-08T20:56:45.304Z,11.47
2022-10-08T20:59:18.478Z,11.43
2022-10-08T21:01:46.761Z,11.37
2022-10-08T21:04:14.415Z,11.31
2022-10-08T21:06:48.148Z,11.25
2022-10-08T21:09:18.554Z,11.20
2022-10-08T21:11:46.562Z,11.14
2022-10-08T21:14:22.748Z,11.09
2022-10-08T21:16:50.571Z,11.03
2022-10-08T21:19:23.413Z,10.99
2022-10-08T21:21:51.736Z,10.95
2022-10-08T21:24:19.560Z,10.92
2022-10-08T21:26:47.636Z,10.90
2022-10-08T21:29:15.480Z,10.88
2022-10-08T21:31:43.338Z,10.87
2022-10-08T21:34:12.751Z,10.85
2022-10-08T21:36:41.628Z,10.83
2022-10-08T21:39:16.183Z,10.79
2022-10-08T21:41:45.168Z,10.78
2022-10-08T21:44:14.077Z,10.74
2022-10-08T21:46:42.456Z,10.73
2022-10-08T21:49:23.504Z,10.71
2022-10-08T21:51:51.884Z,10.69
2022-10-08T21:54:19.588Z,10.66
2022-10-08T21:56:47.234Z,10.65
2022-10-08T21:59:16.161Z,10.63
2022-10-08T22:01:47.658Z,10.60
2022-10-08T22:04:19.616Z,10.60
2022-10-08T22:06:51.767Z,10.58
2022-10-08T22:09:26.155Z,10.56
2022-10-08T22:11:56.321Z,10.53
2022-10-08T22:14:24.351Z,10.53
2022-10-08T22:16:52.883Z,10.48
2022-10-08T22:19:20.815Z,10.47
2022-10-08T22:21:48.508Z,10.45
2022-10-08T22:24:16.534Z,10.45
2022-10-08T22:26:47.075Z,10.44
2022-10-08T22:29:15.808Z,10.45
2022-10-08T22:31:43.969Z,10.45
2022-10-08T22:34:12.504Z,10.44
2022-10-08T22:36:43.126Z,10.45
2022-10-08T22:39:11.272Z,10.45
2022-10-08T22:41:39.135Z,10.44
2022-10-08T22:44:07.122Z,10.42
2022-10-08T22:46:38.445Z,10.40
2022-10-08T22:49:10.154Z,10.37
2022-10-08T22:51:38.956Z,10.37
2022-10-08T22:54:07.409Z,10.35
2022-10-08T22:56:35.349Z,10.34
2022-10-08T22:59:04.186Z,10.32
2022-10-08T23:01:32.094Z,10.33
2022-10-08T23:03:59.973Z,10.32
2022-10-08T23:06:33.712Z,10.31
2022-10-08T23:09:05.949Z,10.30
2022-10-08T23:11:34.656Z,10.31
2022-10-08T23:14:02.803Z,10.29
2022-10-08T23:16:32.984Z,10.28
2022-10-08T23:19:08.115Z,10.28
2022-10-08T23:21:36.822Z,10.28
2022-10-08T23:24:05.616Z,10.27
2022-10-08T23:26:35.447Z,10.24
2022-10-08T23:29:04.047Z,10.21
2022-10-08T23:31:35.140Z,10.17
2022-10-08T23:34:04.916Z,10.14
2022-10-08T23:36:39.980Z,10.10
2022-10-08T23:39:14.046Z,10.08
2022-10-08T23:41:42.048Z,10.04
2022-10-08T23:44:11.547Z,10.00
2022-10-08T23:46:39.106Z,9.95
2022-10-08T23:49:06.914Z,9.89
2022-10-08T23:51:35.397Z,9.85
2022-10-08T23:54:03.189Z,9.81
2022-10-08T23:56:30.735Z,9.80
2022-10-08T23:58:59.575Z,9.77
